sensor_id;sensor_type;location;lat;lon;timestamp;temperature;humidity
68943;DHT22;60852;52.190;4.422;2023-06-10T00:02:20;22.87;52.27
68943;DHT22;60852;52.190;4.422;2023-06-10T00:04:46;22.84;52.31
68943;DHT22;60852;52.190;4.422;2023-06-10T00:07:12;22.78;52.44
68943;DHT22;60852;52.190;4.422;2023-06-10T00:09:38;22.78;52.54
68943;DHT22;60852;52.190;4.422;2023-06-10T00:12:07;22.75;52.28
68943;DHT22;60852;52.190;4.422;2023-06-10T00:14:37;22.69;52.50
68943;DHT22;60852;52.190;4.422;2023-06-10T00:17:03;22.67;52.56
68943;DHT22;60852;52.190;4.422;2023-06-10T00:19:29;22.65;52.22
68943;DHT22;60852;52.190;4.422;2023-06-10T00:21:59;22.61;52.51
68943;DHT22;60852;52.190;4.422;2023-06-10T00:24:24;22.58;52.47
68943;DHT22;60852;52.190;4.422;2023-06-10T00:26:50;22.57;52.32
68943;DHT22;60852;52.190;4.422;2023-06-10T00:29:16;22.53;52.47
68943;DHT22;60852;52.190;4.422;2023-06-10T00:31:41;22.51;52.49
68943;DHT22;60852;52.190;4.422;2023-06-10T00:34:07;22.45;52.52
68943;DHT22;60852;52.190;4.422;2023-06-10T00:36:33;22.47;52.58
68943;DHT22;60852;52.190;4.422;2023-06-10T00:38:59;22.47;52.42
68943;DHT22;60852;52.190;4.422;2023-06-10T00:41:25;22.41;52.56
68943;DHT22;60852;52.190;4.422;2023-06-10T00:43:52;22.41;52.59
68943;DHT22;60852;52.190;4.422;2023-06-10T00:46:18;22.36;52.82
68943;DHT22;60852;52.190;4.422;2023-06-10T00:48:45;22.32;52.60
68943;DHT22;60852;52.190;4.422;2023-06-10T00:51:10;22.32;52.67
68943;DHT22;60852;52.190;4.422;2023-06-10T00:53:39;22.30;52.55
68943;DHT22;60852;52.190;4.422;2023-06-10T00:56:06;22.27;52.49
68943;DHT22;60852;52.190;4.422;2023-06-10T00:58:32;22.21;52.71
68943;DHT22;60852;52.190;4.422;2023-06-10T01:00:57;22.16;52.67
68943;DHT22;60852;52.190;4.422;2023-06-10T01:03:23;22.07;52.85
68943;DHT22;60852;52.190;4.422;2023-06-10T01:05:58;22.02;52.80
68943;DHT22;60852;52.190;4.422;2023-06-10T01:10:59;22.00;52.77
68943;DHT22;60852;52.190;4.422;2023-06-10T01:13:26;21.96;52.82
68943;DHT22;60852;52.190;4.422;2023-06-10T01:15:58;21.95;52.89
68943;DHT22;60852;52.190;4.422;2023-06-10T01:18:30;21.92;52.92
68943;DHT22;60852;52.190;4.422;2023-06-10T01:20:56;21.92;52.90
68943;DHT22;60852;52.190;4.422;2023-06-10T01:23:23;21.76;53.07
68943;DHT22;60852;52.190;4.422;2023-06-10T01:26:04;21.69;53.21
68943;DHT22;60852;52.190;4.422;2023-06-10T01:28:51;21.69;53.14
68943;DHT22;60852;52.190;4.422;2023-06-10T01:31:49;21.62;53.30
68943;DHT22;60852;52.190;4.422;2023-06-10T01:34:18;21.52;53.39
68943;DHT22;60852;52.190;4.422;2023-06-10T01:36:47;21.46;53.49
68943;DHT22;60852;52.190;4.422;2023-06-10T01:39:15;21.42;53.33
68943;DHT22;60852;52.190;4.422;2023-06-10T01:41:42;21.45;53.21
68943;DHT22;60852;52.190;4.422;2023-06-10T01:44:09;21.41;52.98
68943;DHT22;60852;52.190;4.422;2023-06-10T01:46:34;21.41;53.11
68943;DHT22;60852;52.190;4.422;2023-06-10T01:49:00;21.41;53.03
68943;DHT22;60852;52.190;4.422;2023-06-10T01:51:26;21.41;52.73
68943;DHT22;60852;52.190;4.422;2023-06-10T01:53:51;21.38;52.82
68943;DHT22;60852;52.190;4.422;2023-06-10T01:56:17;21.37;52.91
68943;DHT22;60852;52.190;4.422;2023-06-10T01:58:45;21.32;53.04
68943;DHT22;60852;52.190;4.422;2023-06-10T02:01:11;21.27;53.09
68943;DHT22;60852;52.190;4.422;2023-06-10T02:03:37;21.24;53.27
68943;DHT22;60852;52.190;4.422;2023-06-10T02:06:02;21.21;53.30
68943;DHT22;60852;52.190;4.422;2023-06-10T02:08:28;21.15;53.51
68943;DHT22;60852;52.190;4.422;2023-06-10T02:10:54;21.07;53.61
68943;DHT22;60852;52.190;4.422;2023-06-10T02:13:19;21.06;53.66
68943;DHT22;60852;52.190;4.422;2023-06-10T02:15:45;21.01;53.60
68943;DHT22;60852;52.190;4.422;2023-06-10T02:18:10;21.01;53.76
68943;DHT22;60852;52.190;4.422;2023-06-10T02:20:37;20.97;53.69
68943;DHT22;60852;52.190;4.422;2023-06-10T02:23:03;20.94;53.68
68943;DHT22;60852;52.190;4.422;2023-06-10T02:25:29;20.94;53.89
68943;DHT22;60852;52.190;4.422;2023-06-10T02:27:55;20.86;53.92
68943;DHT22;60852;52.190;4.422;2023-06-10T02:30:21;20.87;53.91
68943;DHT22;60852;52.190;4.422;2023-06-10T02:32:46;20.90;53.98
68943;DHT22;60852;52.190;4.422;2023-06-10T02:35:16;20.90;53.87
68943;DHT22;60852;52.190;4.422;2023-06-10T02:37:43;20.88;53.85
68943;DHT22;60852;52.190;4.422;2023-06-10T02:40:09;20.87;53.78
68943;DHT22;60852;52.190;4.422;2023-06-10T02:42:35;20.81;53.82
68943;DHT22;60852;52.190;4.422;2023-06-10T02:45:01;20.75;53.95
68943;DHT22;60852;52.190;4.422;2023-06-10T02:47:26;20.72;54.19
68943;DHT22;60852;52.190;4.422;2023-06-10T02:49:52;20.69;54.29
68943;DHT22;60852;52.190;4.422;2023-06-10T02:52:17;20.66;54.33
68943;DHT22;60852;52.190;4.422;2023-06-10T02:54:43;20.66;54.54
68943;DHT22;60852;52.190;4.422;2023-06-10T02:57:08;20.63;54.67
68943;DHT22;60852;52.190;4.422;2023-06-10T02:59:35;20.72;54.61
68943;DHT22;60852;52.190;4.422;2023-06-10T03:02:01;20.63;54.88
68943;DHT22;60852;52.190;4.422;2023-06-10T03:04:26;20.63;55.00
68943;DHT22;60852;52.190;4.422;2023-06-10T03:06:54;20.63;55.01
68943;DHT22;60852;52.190;4.422;2023-06-10T03:09:20;20.57;55.21
68943;DHT22;60852;52.190;4.422;2023-06-10T03:11:45;20.57;55.37
68943;DHT22;60852;52.190;4.422;2023-06-10T03:14:11;20.59;55.34
68943;DHT22;60852;52.190;4.422;2023-06-10T03:16:36;20.59;55.46
68943;DHT22;60852;52.190;4.422;2023-06-10T03:19:06;20.52;55.52
68943;DHT22;60852;52.190;4.422;2023-06-10T03:21:33;20.56;55.68
68943;DHT22;60852;52.190;4.422;2023-06-10T03:23:59;20.50;55.77
68943;DHT22;60852;52.190;4.422;2023-06-10T03:26:26;20.50;55.75
68943;DHT22;60852;52.190;4.422;2023-06-10T03:28:52;20.53;55.93
68943;DHT22;60852;52.190;4.422;2023-06-10T03:31:18;20.50;56.08
68943;DHT22;60852;52.190;4.422;2023-06-10T03:33:44;20.43;56.26
68943;DHT22;60852;52.190;4.422;2023-06-10T03:36:09;20.45;56.39
68943;DHT22;60852;52.190;4.422;2023-06-10T03:38:35;20.43;56.57
68943;DHT22;60852;52.190;4.422;2023-06-10T03:41:00;20.39;56.72
68943;DHT22;60852;52.190;4.422;2023-06-10T03:43:26;20.33;56.93
68943;DHT22;60852;52.190;4.422;2023-06-10T03:45:52;20.33;57.10
68943;DHT22;60852;52.190;4.422;2023-06-10T03:48:18;20.36;57.23
68943;DHT22;60852;52.190;4.422;2023-06-10T03:50:44;20.30;57.41
68943;DHT22;60852;52.190;4.422;2023-06-10T03:53:09;20.26;57.65
68943;DHT22;60852;52.190;4.422;2023-06-10T03:55:35;20.28;57.91
68943;DHT22;60852;52.190;4.422;2023-06-10T03:58:02;20.32;57.90
68943;DHT22;60852;52.190;4.422;2023-06-10T04:00:28;20.35;57.94
68943;DHT22;60852;52.190;4.422;2023-06-10T04:02:54;20.38;58.06
68943;DHT22;60852;52.190;4.422;2023-06-10T04:05:23;20.40;58.02
68943;DHT22;60852;52.190;4.422;2023-06-10T04:07:49;20.35;58.27
68943;DHT22;60852;52.190;4.422;2023-06-10T04:10:15;20.30;58.59
68943;DHT22;60852;52.190;4.422;2023-06-10T04:12:41;20.33;58.67
68943;DHT22;60852;52.190;4.422;2023-06-10T04:15:07;20.33;58.57
68943;DHT22;60852;52.190;4.422;2023-06-10T04:17:34;20.30;58.86
68943;DHT22;60852;52.190;4.422;2023-06-10T04:20:00;20.67;57.94
68943;DHT22;60852;52.190;4.422;2023-06-10T04:22:26;20.98;56.89
68943;DHT22;60852;52.190;4.422;2023-06-10T04:24:52;21.17;56.32
68943;DHT22;60852;52.190;4.422;2023-06-10T04:27:17;21.21;56.54
68943;DHT22;60852;52.190;4.422;2023-06-10T04:29:43;21.10;56.71
68943;DHT22;60852;52.190;4.422;2023-06-10T04:32:08;20.94;57.20
68943;DHT22;60852;52.190;4.422;2023-06-10T04:34:34;20.69;57.85
68943;DHT22;60852;52.190;4.422;2023-06-10T04:37:00;20.56;58.27
68943;DHT22;60852;52.190;4.422;2023-06-10T04:39:25;20.57;58.54
68943;DHT22;60852;52.190;4.422;2023-06-10T04:41:51;20.57;58.50
68943;DHT22;60852;52.190;4.422;2023-06-10T04:44:16;20.56;58.67
68943;DHT22;60852;52.190;4.422;2023-06-10T04:46:42;20.57;58.67
68943;DHT22;60852;52.190;4.422;2023-06-10T04:49:07;20.60;58.76
68943;DHT22;60852;52.190;4.422;2023-06-10T04:51:33;20.70;58.38
68943;DHT22;60852;52.190;4.422;2023-06-10T04:54:00;20.63;58.62
68943;DHT22;60852;52.190;4.422;2023-06-10T04:56:29;20.70;58.28
68943;DHT22;60852;52.190;4.422;2023-06-10T04:58:56;20.76;58.51
68943;DHT22;60852;52.190;4.422;2023-06-10T05:01:22;20.76;58.60
68943;DHT22;60852;52.190;4.422;2023-06-10T05:03:47;20.83;58.65
68943;DHT22;60852;52.190;4.422;2023-06-10T05:06:13;21.03;57.88
68943;DHT22;60852;52.190;4.422;2023-06-10T05:08:38;21.31;57.27
68943;DHT22;60852;52.190;4.422;2023-06-10T05:11:04;21.71;56.15
68943;DHT22;60852;52.190;4.422;2023-06-10T05:13:29;21.76;56.11
68943;DHT22;60852;52.190;4.422;2023-06-10T05:15:55;22.37;54.28
68943;DHT22;60852;52.190;4.422;2023-06-10T05:18:20;22.74;53.50
68943;DHT22;60852;52.190;4.422;2023-06-10T05:20:46;23.12;52.54
68943;DHT22;60852;52.190;4.422;2023-06-10T05:23:12;23.45;51.43
68943;DHT22;60852;52.190;4.422;2023-06-10T05:25:37;23.40;51.25
68943;DHT22;60852;52.190;4.422;2023-06-10T05:28:03;23.43;51.61
68943;DHT22;60852;52.190;4.422;2023-06-10T05:30:28;23.80;50.45
68943;DHT22;60852;52.190;4.422;2023-06-10T05:32:54;24.00;49.73
68943;DHT22;60852;52.190;4.422;2023-06-10T05:35:21;24.05;49.53
68943;DHT22;60852;52.190;4.422;2023-06-10T05:37:46;24.42;48.87
68943;DHT22;60852;52.190;4.422;2023-06-10T05:40:12;24.66;48.57
68943;DHT22;60852;52.190;4.422;2023-06-10T05:42:37;24.51;49.02
68943;DHT22;60852;52.190;4.422;2023-06-10T05:45:03;24.69;47.94
68943;DHT22;60852;52.190;4.422;2023-06-10T05:47:28;24.80;48.05
68943;DHT22;60852;52.190;4.422;2023-06-10T05:49:54;25.38;46.53
68943;DHT22;60852;52.190;4.422;2023-06-10T05:52:20;24.72;48.41
68943;DHT22;60852;52.190;4.422;2023-06-10T05:54:45;24.65;48.74
68943;DHT22;60852;52.190;4.422;2023-06-10T05:57:11;25.17;47.40
68943;DHT22;60852;52.190;4.422;2023-06-10T05:59:37;25.57;46.23
68943;DHT22;60852;52.190;4.422;2023-06-10T06:02:02;25.49;46.53
68943;DHT22;60852;52.190;4.422;2023-06-10T06:04:28;25.72;45.89
68943;DHT22;60852;52.190;4.422;2023-06-10T06:06:53;25.48;46.60
68943;DHT22;60852;52.190;4.422;2023-06-10T06:09:19;25.98;45.08
68943;DHT22;60852;52.190;4.422;2023-06-10T06:11:44;26.40;44.53
68943;DHT22;60852;52.190;4.422;2023-06-10T06:14:10;26.78;43.81
68943;DHT22;60852;52.190;4.422;2023-06-10T06:16:35;26.46;44.70
68943;DHT22;60852;52.190;4.422;2023-06-10T06:19:01;25.95;45.56
68943;DHT22;60852;52.190;4.422;2023-06-10T06:21:26;25.58;46.72
68943;DHT22;60852;52.190;4.422;2023-06-10T06:23:52;25.81;46.18
68943;DHT22;60852;52.190;4.422;2023-06-10T06:26:17;25.90;45.95
68943;DHT22;60852;52.190;4.422;2023-06-10T06:28:42;24.72;48.44
68943;DHT22;60852;52.190;4.422;2023-06-10T06:31:08;23.66;50.97
68943;DHT22;60852;52.190;4.422;2023-06-10T06:33:33;23.24;52.06
68943;DHT22;60852;52.190;4.422;2023-06-10T06:35:59;22.95;52.77
68943;DHT22;60852;52.190;4.422;2023-06-10T06:38:27;22.75;53.53
68943;DHT22;60852;52.190;4.422;2023-06-10T06:40:53;22.81;53.81
68943;DHT22;60852;52.190;4.422;2023-06-10T06:43:19;22.85;53.82
68943;DHT22;60852;52.190;4.422;2023-06-10T06:45:44;23.02;53.36
68943;DHT22;60852;52.190;4.422;2023-06-10T06:48:11;22.90;53.58
68943;DHT22;60852;52.190;4.422;2023-06-10T06:50:36;22.87;53.61
68943;DHT22;60852;52.190;4.422;2023-06-10T06:53:03;22.82;53.80
68943;DHT22;60852;52.190;4.422;2023-06-10T06:55:28;22.95;53.67
68943;DHT22;60852;52.190;4.422;2023-06-10T06:57:54;22.98;53.42
68943;DHT22;60852;52.190;4.422;2023-06-10T07:00:19;23.20;53.21
68943;DHT22;60852;52.190;4.422;2023-06-10T07:02:45;23.39;52.75
68943;DHT22;60852;52.190;4.422;2023-06-10T07:05:10;23.32;53.40
68943;DHT22;60852;52.190;4.422;2023-06-10T07:07:36;23.23;53.17
68943;DHT22;60852;52.190;4.422;2023-06-10T07:10:01;23.32;53.39
68943;DHT22;60852;52.190;4.422;2023-06-10T07:12:27;23.40;53.15
68943;DHT22;60852;52.190;4.422;2023-06-10T07:14:52;23.34;53.02
68943;DHT22;60852;52.190;4.422;2023-06-10T07:17:18;23.19;52.77
68943;DHT22;60852;52.190;4.422;2023-06-10T07:19:44;23.13;53.32
68943;DHT22;60852;52.190;4.422;2023-06-10T07:22:10;23.33;53.17
68943;DHT22;60852;52.190;4.422;2023-06-10T07:24:35;23.47;52.92
68943;DHT22;60852;52.190;4.422;2023-06-10T07:27:01;23.46;52.85
68943;DHT22;60852;52.190;4.422;2023-06-10T07:29:26;23.64;52.67
68943;DHT22;60852;52.190;4.422;2023-06-10T07:31:51;23.88;51.80
68943;DHT22;60852;52.190;4.422;2023-06-10T07:34:18;24.01;51.52
68943;DHT22;60852;52.190;4.422;2023-06-10T07:36:44;24.02;51.33
68943;DHT22;60852;52.190;4.422;2023-06-10T07:39:09;24.10;51.41
68943;DHT22;60852;52.190;4.422;2023-06-10T07:41:35;24.17;51.41
68943;DHT22;60852;52.190;4.422;2023-06-10T07:44:00;23.96;51.67
68943;DHT22;60852;52.190;4.422;2023-06-10T07:46:26;23.78;52.23
68943;DHT22;60852;52.190;4.422;2023-06-10T07:48:53;23.71;52.21
68943;DHT22;60852;52.190;4.422;2023-06-10T07:51:20;23.70;52.71
68943;DHT22;60852;52.190;4.422;2023-06-10T07:53:46;23.85;52.83
68943;DHT22;60852;52.190;4.422;2023-06-10T07:56:12;24.12;50.92
68943;DHT22;60852;52.190;4.422;2023-06-10T07:58:37;24.35;51.00
68943;DHT22;60852;52.190;4.422;2023-06-10T08:01:03;24.55;51.30
68943;DHT22;60852;52.190;4.422;2023-06-10T08:03:28;24.45;51.78
68943;DHT22;60852;52.190;4.422;2023-06-10T08:05:54;24.47;52.08
68943;DHT22;60852;52.190;4.422;2023-06-10T08:08:19;24.51;52.05
68943;DHT22;60852;52.190;4.422;2023-06-10T08:10:45;24.43;51.91
68943;DHT22;60852;52.190;4.422;2023-06-10T08:13:10;24.25;52.07
68943;DHT22;60852;52.190;4.422;2023-06-10T08:15:36;24.08;52.69
68943;DHT22;60852;52.190;4.422;2023-06-10T08:18:01;24.21;52.57
68943;DHT22;60852;52.190;4.422;2023-06-10T08:20:27;24.28;52.58
68943;DHT22;60852;52.190;4.422;2023-06-10T08:22:52;24.41;51.76
68943;DHT22;60852;52.190;4.422;2023-06-10T08:25:18;24.47;51.67
68943;DHT22;60852;52.190;4.422;2023-06-10T08:27:43;24.62;51.46
68943;DHT22;60852;52.190;4.422;2023-06-10T08:30:09;24.68;50.79
68943;DHT22;60852;52.190;4.422;2023-06-10T08:32:36;24.72;51.26
68943;DHT22;60852;52.190;4.422;2023-06-10T08:35:02;24.77;51.39
68943;DHT22;60852;52.190;4.422;2023-06-10T08:37:28;24.73;51.31
68943;DHT22;60852;52.190;4.422;2023-06-10T08:39:54;24.97;51.15
68943;DHT22;60852;52.190;4.422;2023-06-10T08:42:33;25.23;49.83
68943;DHT22;60852;52.190;4.422;2023-06-10T08:45:02;25.18;49.82
68943;DHT22;60852;52.190;4.422;2023-06-10T08:47:30;25.14;49.98
68943;DHT22;60852;52.190;4.422;2023-06-10T08:50:03;25.24;50.16
68943;DHT22;60852;52.190;4.422;2023-06-10T08:52:35;25.45;49.23
68943;DHT22;60852;52.190;4.422;2023-06-10T08:55:38;25.42;48.82
68943;DHT22;60852;52.190;4.422;2023-06-10T08:58:07;25.54;48.98
68943;DHT22;60852;52.190;4.422;2023-06-10T09:00:34;25.75;48.69
68943;DHT22;60852;52.190;4.422;2023-06-10T09:03:01;25.86;48.37
68943;DHT22;60852;52.190;4.422;2023-06-10T09:05:29;26.02;48.00
68943;DHT22;60852;52.190;4.422;2023-06-10T09:07:57;26.17;48.32
68943;DHT22;60852;52.190;4.422;2023-06-10T09:10:22;26.37;47.77
68943;DHT22;60852;52.190;4.422;2023-06-10T09:12:48;26.33;47.81
68943;DHT22;60852;52.190;4.422;2023-06-10T09:15:13;26.43;47.99
68943;DHT22;60852;52.190;4.422;2023-06-10T09:17:40;26.40;47.44
68943;DHT22;60852;52.190;4.422;2023-06-10T09:20:09;26.15;47.92
68943;DHT22;60852;52.190;4.422;2023-06-10T09:22:36;25.89;47.81
68943;DHT22;60852;52.190;4.422;2023-06-10T09:25:09;25.85;48.41
68943;DHT22;60852;52.190;4.422;2023-06-10T09:27:49;25.88;48.88
68943;DHT22;60852;52.190;4.422;2023-06-10T09:30:25;26.09;48.02
68943;DHT22;60852;52.190;4.422;2023-06-10T09:32:56;26.15;48.13
68943;DHT22;60852;52.190;4.422;2023-06-10T09:35:25;26.20;47.98
68943;DHT22;60852;52.190;4.422;2023-06-10T09:37:56;26.30;47.45
68943;DHT22;60852;52.190;4.422;2023-06-10T09:40:22;26.30;47.14
68943;DHT22;60852;52.190;4.422;2023-06-10T09:42:53;26.37;47.02
68943;DHT22;60852;52.190;4.422;2023-06-10T09:45:20;26.56;46.71
68943;DHT22;60852;52.190;4.422;2023-06-10T09:47:47;26.71;46.96
68943;DHT22;60852;52.190;4.422;2023-06-10T09:50:12;26.91;45.85
68943;DHT22;60852;52.190;4.422;2023-06-10T09:52:38;27.02;45.21
68943;DHT22;60852;52.190;4.422;2023-06-10T09:55:08;27.57;44.31
68943;DHT22;60852;52.190;4.422;2023-06-10T09:57:34;27.91;43.12
68943;DHT22;60852;52.190;4.422;2023-06-10T10:00:11;28.34;42.45
68943;DHT22;60852;52.190;4.422;2023-06-10T10:02:49;28.31;42.30
68943;DHT22;60852;52.190;4.422;2023-06-10T10:05:17;28.53;41.54
68943;DHT22;60852;52.190;4.422;2023-06-10T10:07:44;28.65;40.83
68943;DHT22;60852;52.190;4.422;2023-06-10T10:10:11;28.98;40.07
68943;DHT22;60852;52.190;4.422;2023-06-10T10:12:38;29.47;40.02
68943;DHT22;60852;52.190;4.422;2023-06-10T10:15:10;29.61;40.40
68943;DHT22;60852;52.190;4.422;2023-06-10T10:17:50;29.48;39.80
68943;DHT22;60852;52.190;4.422;2023-06-10T10:20:20;29.85;38.41
68943;DHT22;60852;52.190;4.422;2023-06-10T10:22:49;30.10;38.07
68943;DHT22;60852;52.190;4.422;2023-06-10T10:25:23;30.33;37.33
68943;DHT22;60852;52.190;4.422;2023-06-10T10:28:02;30.13;37.14
68943;DHT22;60852;52.190;4.422;2023-06-10T10:30:30;30.43;37.44
68943;DHT22;60852;52.190;4.422;2023-06-10T10:33:03;30.81;36.79
68943;DHT22;60852;52.190;4.422;2023-06-10T10:35:33;30.83;37.37
68943;DHT22;60852;52.190;4.422;2023-06-10T10:37:59;30.80;37.30
68943;DHT22;60852;52.190;4.422;2023-06-10T10:40:28;30.19;37.07
68943;DHT22;60852;52.190;4.422;2023-06-10T10:42:56;29.16;39.21
68943;DHT22;60852;52.190;4.422;2023-06-10T10:45:23;29.04;40.01
68943;DHT22;60852;52.190;4.422;2023-06-10T10:47:53;29.47;38.92
68943;DHT22;60852;52.190;4.422;2023-06-10T10:50:21;29.71;38.90
68943;DHT22;60852;52.190;4.422;2023-06-10T10:52:55;29.31;39.69
68943;DHT22;60852;52.190;4.422;2023-06-10T10:55:24;28.69;39.24
68943;DHT22;60852;52.190;4.422;2023-06-10T10:58:08;28.52;40.26
68943;DHT22;60852;52.190;4.422;2023-06-10T11:00:36;28.69;39.81
68943;DHT22;60852;52.190;4.422;2023-06-10T11:05:48;29.37;39.03
68943;DHT22;60852;52.190;4.422;2023-06-10T11:10:57;29.46;38.16
68943;DHT22;60852;52.190;4.422;2023-06-10T11:13:26;29.10;39.50
68943;DHT22;60852;52.190;4.422;2023-06-10T11:15:53;29.40;38.59
68943;DHT22;60852;52.190;4.422;2023-06-10T11:18:26;29.41;38.58
68943;DHT22;60852;52.190;4.422;2023-06-10T11:20:55;29.62;38.49
68943;DHT22;60852;52.190;4.422;2023-06-10T11:31:32;28.96;39.54
68943;DHT22;60852;52.190;4.422;2023-06-10T11:34:05;29.23;39.65
68943;DHT22;60852;52.190;4.422;2023-06-10T11:36:33;29.79;38.17
68943;DHT22;60852;52.190;4.422;2023-06-10T11:39:04;29.99;37.46
68943;DHT22;60852;52.190;4.422;2023-06-10T11:41:32;29.53;38.96
68943;DHT22;60852;52.190;4.422;2023-06-10T11:44:10;29.77;37.85
68943;DHT22;60852;52.190;4.422;2023-06-10T11:46:37;29.43;38.76
68943;DHT22;60852;52.190;4.422;2023-06-10T11:49:04;29.10;39.26
68943;DHT22;60852;52.190;4.422;2023-06-10T11:51:35;28.72;39.76
68943;DHT22;60852;52.190;4.422;2023-06-10T11:54:02;28.72;40.07
68943;DHT22;60852;52.190;4.422;2023-06-10T11:56:30;28.96;40.12
68943;DHT22;60852;52.190;4.422;2023-06-10T11:59:00;29.16;39.12
68943;DHT22;60852;52.190;4.422;2023-06-10T12:01:31;28.95;40.02
68943;DHT22;60852;52.190;4.422;2023-06-10T12:04:07;29.30;39.30
68943;DHT22;60852;52.190;4.422;2023-06-10T12:06:44;29.67;38.58
68943;DHT22;60852;52.190;4.422;2023-06-10T12:09:20;29.65;38.12
68943;DHT22;60852;52.190;4.422;2023-06-10T12:11:52;30.02;37.69
68943;DHT22;60852;52.190;4.422;2023-06-10T12:14:49;29.89;37.80
68943;DHT22;60852;52.190;4.422;2023-06-10T12:17:16;29.88;36.59
68943;DHT22;60852;52.190;4.422;2023-06-10T12:19:41;29.91;37.50
68943;DHT22;60852;52.190;4.422;2023-06-10T12:22:07;30.16;36.72
68943;DHT22;60852;52.190;4.422;2023-06-10T12:24:32;30.25;36.83
68943;DHT22;60852;52.190;4.422;2023-06-10T12:26:58;30.16;36.71
68943;DHT22;60852;52.190;4.422;2023-06-10T12:29:24;30.15;36.07
68943;DHT22;60852;52.190;4.422;2023-06-10T12:32:00;29.68;36.67
68943;DHT22;60852;52.190;4.422;2023-06-10T12:34:39;29.44;36.69
68943;DHT22;60852;52.190;4.422;2023-06-10T12:37:13;29.60;37.69
68943;DHT22;60852;52.190;4.422;2023-06-10T12:39:40;29.92;36.37
68943;DHT22;60852;52.190;4.422;2023-06-10T12:42:06;29.89;36.38
68943;DHT22;60852;52.190;4.422;2023-06-10T12:44:39;29.78;36.74
68943;DHT22;60852;52.190;4.422;2023-06-10T12:47:09;29.78;36.38
68943;DHT22;60852;52.190;4.422;2023-06-10T12:49:36;29.98;36.82
68943;DHT22;60852;52.190;4.422;2023-06-10T12:52:03;30.23;35.17
68943;DHT22;60852;52.190;4.422;2023-06-10T12:54:28;30.22;35.97
68943;DHT22;60852;52.190;4.422;2023-06-10T12:56:54;29.98;36.35
68943;DHT22;60852;52.190;4.422;2023-06-10T12:59:19;29.88;36.74
68943;DHT22;60852;52.190;4.422;2023-06-10T13:01:53;30.15;36.31
68943;DHT22;60852;52.190;4.422;2023-06-10T13:04:19;30.53;35.25
68943;DHT22;60852;52.190;4.422;2023-06-10T13:06:46;30.35;35.45
68943;DHT22;60852;52.190;4.422;2023-06-10T13:09:12;29.89;36.14
68943;DHT22;60852;52.190;4.422;2023-06-10T13:11:38;30.05;35.49
68943;DHT22;60852;52.190;4.422;2023-06-10T13:14:04;29.95;35.33
68943;DHT22;60852;52.190;4.422;2023-06-10T13:16:31;29.79;35.55
68943;DHT22;60852;52.190;4.422;2023-06-10T13:18:57;30.02;34.97
68943;DHT22;60852;52.190;4.422;2023-06-10T13:21:23;30.22;34.13
68943;DHT22;60852;52.190;4.422;2023-06-10T13:23:48;30.29;34.75
68943;DHT22;60852;52.190;4.422;2023-06-10T13:26:14;30.15;34.56
68943;DHT22;60852;52.190;4.422;2023-06-10T13:28:43;29.81;34.80
68943;DHT22;60852;52.190;4.422;2023-06-10T13:31:08;29.64;35.36
68943;DHT22;60852;52.190;4.422;2023-06-10T13:33:34;29.70;35.48
68943;DHT22;60852;52.190;4.422;2023-06-10T13:35:59;30.10;35.20
68943;DHT22;60852;52.190;4.422;2023-06-10T13:38:25;30.37;34.23
68943;DHT22;60852;52.190;4.422;2023-06-10T13:40:50;30.33;33.62
68943;DHT22;60852;52.190;4.422;2023-06-10T13:43:16;30.10;34.11
68943;DHT22;60852;52.190;4.422;2023-06-10T13:45:42;30.09;34.24
68943;DHT22;60852;52.190;4.422;2023-06-10T13:48:07;30.05;34.74
68943;DHT22;60852;52.190;4.422;2023-06-10T13:50:33;30.10;34.11
68943;DHT22;60852;52.190;4.422;2023-06-10T13:52:59;29.91;34.19
68943;DHT22;60852;52.190;4.422;2023-06-10T13:55:24;29.99;35.05
68943;DHT22;60852;52.190;4.422;2023-06-10T13:57:50;30.20;34.76
68943;DHT22;60852;52.190;4.422;2023-06-10T14:00:16;30.16;33.62
68943;DHT22;60852;52.190;4.422;2023-06-10T14:02:42;29.97;34.26
68943;DHT22;60852;52.190;4.422;2023-06-10T14:05:07;30.15;34.72
68943;DHT22;60852;52.190;4.422;2023-06-10T14:07:34;30.32;34.48
68943;DHT22;60852;52.190;4.422;2023-06-10T14:10:00;30.25;33.13
68943;DHT22;60852;52.190;4.422;2023-06-10T14:12:25;30.18;33.97
68943;DHT22;60852;52.190;4.422;2023-06-10T14:14:50;30.13;34.43
68943;DHT22;60852;52.190;4.422;2023-06-10T14:17:16;29.95;34.46
68943;DHT22;60852;52.190;4.422;2023-06-10T14:19:41;29.81;34.94
68943;DHT22;60852;52.190;4.422;2023-06-10T14:22:07;30.02;34.29
68943;DHT22;60852;52.190;4.422;2023-06-10T14:24:34;30.10;34.73
68943;DHT22;60852;52.190;4.422;2023-06-10T14:27:00;30.12;34.50
68943;DHT22;60852;52.190;4.422;2023-06-10T14:29:25;29.99;34.87
68943;DHT22;60852;52.190;4.422;2023-06-10T14:31:54;29.77;35.16
68943;DHT22;60852;52.190;4.422;2023-06-10T14:34:20;29.57;35.41
68943;DHT22;60852;52.190;4.422;2023-06-10T14:36:46;29.50;35.47
68943;DHT22;60852;52.190;4.422;2023-06-10T14:39:11;29.67;35.05
68943;DHT22;60852;52.190;4.422;2023-06-10T14:41:37;29.84;34.90
68943;DHT22;60852;52.190;4.422;2023-06-10T14:44:02;29.89;35.25
68943;DHT22;60852;52.190;4.422;2023-06-10T14:46:28;30.01;35.33
68943;DHT22;60852;52.190;4.422;2023-06-10T14:48:53;30.05;34.79
68943;DHT22;60852;52.190;4.422;2023-06-10T14:51:19;30.04;34.59
68943;DHT22;60852;52.190;4.422;2023-06-10T14:53:46;30.12;33.89
68943;DHT22;60852;52.190;4.422;2023-06-10T14:56:12;30.15;33.84
68943;DHT22;60852;52.190;4.422;2023-06-10T14:58:37;29.99;34.47
68943;DHT22;60852;52.190;4.422;2023-06-10T15:01:03;29.95;34.74
68943;DHT22;60852;52.190;4.422;2023-06-10T15:03:29;29.99;34.48
68943;DHT22;60852;52.190;4.422;2023-06-10T15:05:54;29.98;33.25
68943;DHT22;60852;52.190;4.422;2023-06-10T15:08:20;29.78;34.51
68943;DHT22;60852;52.190;4.422;2023-06-10T15:10:45;29.82;34.40
68943;DHT22;60852;52.190;4.422;2023-06-10T15:13:13;29.92;34.35
68943;DHT22;60852;52.190;4.422;2023-06-10T15:15:38;29.82;34.92
68943;DHT22;60852;52.190;4.422;2023-06-10T15:18:04;29.84;33.85
68943;DHT22;60852;52.190;4.422;2023-06-10T15:20:30;29.68;35.22
68943;DHT22;60852;52.190;4.422;2023-06-10T15:22:56;29.51;35.62
68943;DHT22;60852;52.190;4.422;2023-06-10T15:25:22;29.50;35.66
68943;DHT22;60852;52.190;4.422;2023-06-10T15:27:47;29.64;36.07
68943;DHT22;60852;52.190;4.422;2023-06-10T15:30:13;29.82;35.00
68943;DHT22;60852;52.190;4.422;2023-06-10T15:32:38;29.88;35.38
68943;DHT22;60852;52.190;4.422;2023-06-10T15:35:04;29.77;34.53
68943;DHT22;60852;52.190;4.422;2023-06-10T15:37:30;29.71;34.78
68943;DHT22;60852;52.190;4.422;2023-06-10T15:39:55;29.85;34.65
68943;DHT22;60852;52.190;4.422;2023-06-10T15:42:21;29.95;34.82
68943;DHT22;60852;52.190;4.422;2023-06-10T15:44:47;29.64;34.86
68943;DHT22;60852;52.190;4.422;2023-06-10T15:47:12;29.67;34.85